Overview Statistics Trail Chart Weather Telemetry Raw packets
 

This is the latest recevied weather packets stored in our database for station/object OM6ACB-6. If no packets are shown the sender has not sent any weather packets the latest 10 day(s).

<< 15 16 17 18 19 20 21 >>
Time Temp. Humidity Pressure Rain* Wind** Luminosity Snow
1788420277 21.67° C 22% 1024.6 hPa 0 mm - - -
1788419677 21.11° C 22% 1024.4 hPa 0 mm - - -
1788419077 20.56° C 22% 1024.6 hPa 0 mm - - -
1788418477 18.33° C 23% 1024.4 hPa 0 mm - - -
1788417876 20° C 22% 1024.7 hPa 0 mm - - -
1788417276 17.78° C 24% 1024.2 hPa 0 mm - - -
1788416676 18.33° C 23% 1024.5 hPa 0 mm - - -
1788416075 17.78° C 24% 1024.3 hPa 0 mm - - -
1788415475 17.22° C 24% 1024.2 hPa 0 mm - - -
1788414875 16.67° C 24% 1024.1 hPa 0 mm - - -
1788414275 16.11° C 24% 1024.1 hPa 0 mm - - -
1788413674 17.22° C 24% 1024.1 hPa 0 mm - - -
1788413074 16.67° C 24% 1024 hPa 0 mm - - -
1788412474 13.33° C 26% 1023.4 hPa 0 mm - - -
1788411873 12.22° C 32% 1023.1 hPa 0 mm - - -
1788411273 12.22° C 38% 1023.2 hPa 0 mm - - -
1788410673 12.22° C 43% 1023.1 hPa 0 mm - - -
1788410073 12.22° C 57% 1023.1 hPa 0 mm - - -
1788409472 11.67° C 60% 1022.9 hPa 0 mm - - -
1788408872 11.11° C 60% 1023 hPa 0 mm - - -
1788408272 11.67° C 60% 1023.1 hPa 0 mm - - -
1788407671 11.67° C 60% 1023.1 hPa 0 mm - - -
1788407071 12.22° C 58% 1023 hPa 0 mm - - -
1788406471 12.22° C 56% 1023 hPa 0 mm - - -
1788405871 12.22° C 53% 1023 hPa 0 mm - - -

* Rain latest hour (hover to see other rain measurements)
** Current wind speed in m/s (hover to see current wind gust speed)